Time,TemperatureF,DewpointF,PressureIn,WindDirection,WindDirectionDegrees,WindSpeedMPH,WindSpeedGustMPH,Humidity,HourlyPrecipIn,Conditions,Clouds,dailyrainin,SoftwareType,DateUTC
2013-05-01 00:01:00,56.9,53.7,30.18,North,360,3.0,10.0,89,0.00,,---,0.00,VWS V14.01,2013-05-01 04:01:00,
2013-05-01 00:06:00,56.8,53.6,30.18,North,360,5.0,7.0,89,0.00,,---,0.00,VWS V14.01,2013-05-01 04:06:00,
2013-05-01 00:11:00,56.6,53.4,30.18,North,360,2.0,7.0,89,0.00,,---,0.00,VWS V14.01,2013-05-01 04:11:00,
2013-05-01 00:16:00,56.5,53.3,30.18,North,360,3.0,7.0,89,0.00,,---,0.00,VWS V14.01,2013-05-01 04:16:00,
2013-05-01 00:21:00,56.4,53.2,30.18,North,360,3.0,7.0,89,0.00,,---,0.00,VWS V14.01,2013-05-01 04:21:00,
2013-05-01 00:26:00,56.4,53.2,30.18,North,360,2.0,7.0,89,0.00,,---,0.00,VWS V14.01,2013-05-01 04:26:00,
2013-05-01 00:31:00,56.3,53.4,30.18,North,360,3.0,7.0,90,0.00,,---,0.00,VWS V14.01,2013-05-01 04:31:00,
2013-05-01 00:36:00,56.3,53.4,30.18,North,360,4.0,9.0,90,0.00,,---,0.00,VWS V14.01,2013-05-01 04:36:00,
2013-05-01 00:41:00,56.3,53.4,30.18,North,360,5.0,9.0,90,0.00,,---,0.00,VWS V14.01,2013-05-01 04:41:00,
2013-05-01 00:47:00,56.2,53.3,30.18,North,360,2.0,9.0,90,0.00,,---,0.00,VWS V14.01,2013-05-01 04:47:00,
2013-05-01 00:52:00,56.1,53.2,30.18,North,360,2.0,9.0,90,0.00,,---,0.00,VWS V14.01,2013-05-01 04:52:00,
2013-05-01 00:57:00,55.8,52.9,30.18,North,360,2.0,9.0,90,0.00,,---,0.00,VWS V14.01,2013-05-01 04:57:00,
2013-05-01 01:02:00,55.6,52.7,30.18,North,360,3.0,9.0,90,0.00,,---,0.00,VWS V14.01,2013-05-01 05:02:00,
2013-05-01 01:07:00,55.5,52.6,30.18,North,360,4.0,5.0,90,0.00,,---,0.00,VWS V14.01,2013-05-01 05:07:00,
2013-05-01 01:12:00,55.4,52.8,30.18,North,360,2.0,5.0,91,0.00,,---,0.00,VWS V14.01,2013-05-01 05:12:00,
2013-05-01 01:17:00,55.4,52.8,30.18,North,360,5.0,7.0,91,0.00,,---,0.00,VWS V14.01,2013-05-01 05:17:00,
2013-05-01 01:22:00,55.5,52.9,30.18,North,360,2.0,7.0,91,0.00,,---,0.00,VWS V14.01,2013-05-01 05:22:00,
2013-05-01 01:27:00,55.5,52.9,30.18,North,360,2.0,7.0,91,0.00,,---,0.00,VWS V14.01,2013-05-01 05:27:00,
2013-05-01 01:32:00,55.6,53.0,30.18,North,360,2.0,7.0,91,0.00,,---,0.00,VWS V14.01,2013-05-01 05:32:00,
2013-05-01 01:37:00,55.5,52.9,30.18,North,360,4.0,7.0,91,0.00,,---,0.00,VWS V14.01,2013-05-01 05:37:00,
2013-05-01 01:42:00,55.4,52.8,30.18,North,360,1.0,7.0,91,0.00,,---,0.00,VWS V14.01,2013-05-01 05:42:00,
2013-05-01 01:47:00,55.4,53.1,30.18,North,360,3.0,9.0,92,0.00,,---,0.00,VWS V14.01,2013-05-01 05:47:00,
2013-05-01 01:52:00,55.4,53.1,30.18,North,360,5.0,9.0,92,0.00,,---,0.00,VWS V14.01,2013-05-01 05:52:00,
2013-05-01 01:57:00,55.4,53.1,30.18,North,360,2.0,9.0,92,0.00,,---,0.00,VWS V14.01,2013-05-01 05:57:00,
2013-05-01 02:02:00,55.4,53.1,30.18,North,360,2.0,9.0,92,0.00,,---,0.00,VWS V14.01,2013-05-01 06:02:00,
2013-05-01 02:07:00,55.4,53.1,30.18,North,360,6.0,10.0,92,0.00,,---,0.00,VWS V14.01,2013-05-01 06:07:00,
2013-05-01 02:13:00,55.4,53.1,30.18,North,360,5.0,10.0,92,0.00,,---,0.00,VWS V14.01,2013-05-01 06:13:00,
2013-05-01 02:18:00,55.4,53.1,30.18,North,360,4.0,10.0,92,0.00,,---,0.00,VWS V14.01,2013-05-01 06:18:00,
2013-05-01 02:23:00,55.4,53.1,30.18,North,360,0.0,10.0,92,0.00,,---,0.00,VWS V14.01,2013-05-01 06:23:00,
2013-05-01 02:28:00,55.4,53.1,30.18,North,360,3.0,10.0,92,0.00,,---,0.00,VWS V14.01,2013-05-01 06:28:00,
2013-05-01 02:33:00,55.6,53.6,30.18,North,360,3.0,10.0,93,0.00,,---,0.00,VWS V14.01,2013-05-01 06:33:00,
2013-05-01 02:38:00,55.7,53.7,30.18,North,360,6.0,10.0,93,0.00,,---,0.00,VWS V14.01,2013-05-01 06:38:00,
2013-05-01 02:43:00,55.9,53.9,30.18,North,360,5.0,12.0,93,0.00,,---,0.00,VWS V14.01,2013-05-01 06:43:00,
2013-05-01 02:48:00,56.0,54.0,30.18,North,360,5.0,12.0,93,0.00,,---,0.00,VWS V14.01,2013-05-01 06:48:00,
2013-05-01 02:53:00,56.1,53.8,30.18,North,360,5.0,14.0,92,0.00,,---,0.00,VWS V14.01,2013-05-01 06:53:00,
2013-05-01 02:58:00,56.2,53.9,30.18,North,360,4.0,14.0,92,0.00,,---,0.00,VWS V14.01,2013-05-01 06:58:00,
2013-05-01 03:03:00,56.1,53.8,30.18,North,360,10.0,10.0,92,0.00,,---,0.00,VWS V14.01,2013-05-01 07:03:00,
2013-05-01 03:08:00,56.1,53.8,30.18,North,360,6.0,10.0,92,0.00,,---,0.00,VWS V14.01,2013-05-01 07:08:00,
2013-05-01 03:13:00,56.1,53.8,30.18,North,360,6.0,10.0,92,0.00,,---,0.00,VWS V14.01,2013-05-01 07:13:00,
2013-05-01 03:18:00,56.2,53.9,30.18,North,360,6.0,10.0,92,0.00,,---,0.00,VWS V14.01,2013-05-01 07:18:00,
2013-05-01 03:23:00,56.2,53.9,30.18,North,360,6.0,10.0,92,0.00,,---,0.00,VWS V14.01,2013-05-01 07:23:00,
2013-05-01 03:28:00,56.2,53.9,30.18,North,360,5.0,10.0,92,0.00,,---,0.00,VWS V14.01,2013-05-01 07:28:00,
2013-05-01 03:34:00,56.1,53.8,30.18,North,360,5.0,10.0,92,0.00,,---,0.00,VWS V14.01,2013-05-01 07:34:00,
2013-05-01 03:39:00,56.1,53.8,30.18,North,360,0.0,10.0,92,0.00,,---,0.00,VWS V14.01,2013-05-01 07:39:00,
2013-05-01 03:44:00,56.0,53.7,30.18,North,360,3.0,10.0,92,0.00,,---,0.00,VWS V14.01,2013-05-01 07:44:00,
2013-05-01 03:49:00,55.9,53.6,30.18,North,360,5.0,10.0,92,0.00,,---,0.00,VWS V14.01,2013-05-01 07:49:00,
2013-05-01 03:54:00,55.9,53.6,30.18,North,360,3.0,10.0,92,0.00,,---,0.00,VWS V14.01,2013-05-01 07:54:00,
2013-05-01 03:59:00,55.9,53.6,30.18,North,360,2.0,10.0,92,0.00,,---,0.00,VWS V14.01,2013-05-01 07:59:00,
2013-05-01 04:04:00,55.8,53.5,30.18,North,360,6.0,6.0,92,0.00,,---,0.00,VWS V14.01,2013-05-01 08:04:00,
2013-05-01 04:09:00,55.8,53.5,30.18,North,360,3.0,7.0,92,0.00,,---,0.00,VWS V14.01,2013-05-01 08:09:00,
2013-05-01 04:14:00,55.9,53.6,30.18,North,360,3.0,9.0,92,0.00,,---,0.00,VWS V14.01,2013-05-01 08:14:00,
2013-05-01 04:19:00,55.9,53.6,30.18,North,360,3.0,9.0,92,0.00,,---,0.00,VWS V14.01,2013-05-01 08:19:00,
2013-05-01 04:24:00,55.9,53.6,30.19,North,360,7.0,11.0,92,0.00,,---,0.00,VWS V14.01,2013-05-01 08:24:00,
2013-05-01 04:29:00,56.0,53.7,30.19,North,360,5.0,11.0,92,0.00,,---,0.00,VWS V14.01,2013-05-01 08:29:00,
2013-05-01 04:35:00,56.1,53.8,30.19,North,360,8.0,12.0,92,0.00,,---,0.00,VWS V14.01,2013-05-01 08:35:00,
2013-05-01 04:40:00,56.1,53.8,30.19,North,360,5.0,12.0,92,0.00,,---,0.00,VWS V14.01,2013-05-01 08:40:00,
2013-05-01 04:45:00,56.1,53.8,30.19,North,360,5.0,12.0,92,0.00,,---,0.00,VWS V14.01,2013-05-01 08:45:00,
2013-05-01 04:50:00,56.1,53.8,30.19,North,360,7.0,12.0,92,0.00,,---,0.00,VWS V14.01,2013-05-01 08:50:00,
2013-05-01 04:55:00,56.2,53.9,30.19,North,360,4.0,12.0,92,0.00,,---,0.00,VWS V14.01,2013-05-01 08:55:00,
2013-05-01 05:00:00,56.2,53.9,30.19,North,360,4.0,13.0,92,0.00,,---,0.00,VWS V14.01,2013-05-01 09:00:00,
2013-05-01 05:05:00,56.2,53.9,30.19,North,360,6.0,9.0,92,0.00,,---,0.00,VWS V14.01,2013-05-01 09:05:00,
2013-05-01 05:10:00,56.2,53.9,30.19,North,360,9.0,12.0,92,0.00,,---,0.00,VWS V14.01,2013-05-01 09:10:00,
2013-05-01 05:15:00,56.1,53.8,30.19,North,360,7.0,12.0,92,0.00,,---,0.00,VWS V14.01,2013-05-01 09:15:00,
2013-05-01 05:20:00,56.1,53.8,30.19,North,360,7.0,12.0,92,0.00,,---,0.00,VWS V14.01,2013-05-01 09:20:00,
2013-05-01 05:25:00,56.0,53.7,30.19,North,360,5.0,12.0,92,0.00,,---,0.00,VWS V14.01,2013-05-01 09:25:00,
2013-05-01 05:31:00,56.0,53.7,30.19,North,360,9.0,13.0,92,0.00,,---,0.00,VWS V14.01,2013-05-01 09:31:00,
2013-05-01 05:36:00,56.0,53.7,30.19,North,360,9.0,13.0,92,0.00,,---,0.00,VWS V14.01,2013-05-01 09:36:00,
2013-05-01 05:41:00,55.9,53.9,30.19,North,360,9.0,13.0,93,0.00,,---,0.00,VWS V14.01,2013-05-01 09:41:00,
2013-05-01 05:45:00,55.9,53.9,30.19,North,360,3.0,13.0,93,0.00,,---,0.00,VWS V14.01,2013-05-01 09:45:00,
2013-05-01 05:51:00,55.9,53.9,30.20,North,360,1.0,13.0,93,0.00,,---,0.00,VWS V14.01,2013-05-01 09:51:00,
2013-05-01 05:56:00,55.9,53.9,30.20,North,360,4.0,13.0,93,0.00,,---,0.00,VWS V14.01,2013-05-01 09:56:00,
2013-05-01 06:01:00,55.8,53.8,30.20,North,360,12.0,13.0,93,0.00,,---,0.00,VWS V14.01,2013-05-01 10:01:00,
2013-05-01 06:06:00,55.8,53.8,30.21,North,360,7.0,11.0,93,0.00,,---,0.00,VWS V14.01,2013-05-01 10:06:00,
2013-05-01 06:11:00,55.8,53.8,30.21,North,360,4.0,11.0,93,0.00,,---,0.00,VWS V14.01,2013-05-01 10:11:00,
2013-05-01 06:16:00,55.8,53.8,30.22,North,360,5.0,11.0,93,0.00,,---,0.00,VWS V14.01,2013-05-01 10:16:00,
2013-05-01 06:21:00,55.8,53.8,30.21,North,360,6.0,11.0,93,0.00,,---,0.00,VWS V14.01,2013-05-01 10:21:00,
2013-05-01 06:26:00,55.7,53.7,30.22,North,360,6.0,11.0,93,0.00,,---,0.00,VWS V14.01,2013-05-01 10:26:00,
2013-05-01 06:31:00,55.7,53.7,30.22,North,360,5.0,11.0,93,0.00,,---,0.00,VWS V14.01,2013-05-01 10:31:00,
2013-05-01 06:36:00,55.6,53.9,30.22,North,360,5.0,11.0,94,0.00,,---,0.00,VWS V14.01,2013-05-01 10:36:00,
2013-05-01 06:41:00,55.6,53.9,30.23,North,360,4.0,11.0,94,0.00,,---,0.00,VWS V14.01,2013-05-01 10:41:00,
2013-05-01 06:46:00,55.6,53.9,30.23,North,360,6.0,11.0,94,0.00,,---,0.00,VWS V14.01,2013-05-01 10:46:00,
2013-05-01 06:51:00,55.7,54.0,30.23,North,360,5.0,11.0,94,0.00,,---,0.00,VWS V14.01,2013-05-01 10:51:00,
2013-05-01 06:57:00,55.7,54.0,30.23,North,360,6.0,11.0,94,0.00,,---,0.00,VWS V14.01,2013-05-01 10:57:00,
2013-05-01 07:02:00,55.7,54.0,30.23,North,360,6.0,11.0,94,0.00,,---,0.00,VWS V14.01,2013-05-01 11:02:00,
2013-05-01 07:07:00,55.7,54.0,30.24,North,360,1.0,7.0,94,0.00,,---,0.00,VWS V14.01,2013-05-01 11:07:00,
2013-05-01 07:12:00,55.7,54.0,30.24,North,360,6.0,10.0,94,0.00,,---,0.00,VWS V14.01,2013-05-01 11:12:00,
2013-05-01 07:17:00,55.8,54.1,30.23,North,360,7.0,10.0,94,0.00,,---,0.00,VWS V14.01,2013-05-01 11:17:00,
2013-05-01 07:22:00,55.9,54.2,30.24,North,360,4.0,10.0,94,0.00,,---,0.00,VWS V14.01,2013-05-01 11:22:00,
2013-05-01 07:27:00,55.9,53.9,30.23,North,360,5.0,11.0,93,0.00,,---,0.00,VWS V14.01,2013-05-01 11:27:00,
2013-05-01 07:32:00,56.0,54.0,30.24,North,360,6.0,11.0,93,0.00,,---,0.00,VWS V14.01,2013-05-01 11:32:00,
2013-05-01 07:37:00,56.1,54.1,30.24,North,360,3.0,11.0,93,0.00,,---,0.00,VWS V14.01,2013-05-01 11:37:00,
2013-05-01 07:42:00,56.1,54.1,30.24,North,360,4.0,11.0,93,0.00,,---,0.00,VWS V14.01,2013-05-01 11:42:00,
2013-05-01 07:47:00,56.2,54.2,30.24,North,360,4.0,11.0,93,0.00,,---,0.00,VWS V14.01,2013-05-01 11:47:00,
2013-05-01 07:52:00,56.2,54.2,30.24,North,360,4.0,11.0,93,0.00,,---,0.00,VWS V14.01,2013-05-01 11:52:00,
2013-05-01 07:57:00,56.3,54.3,30.24,North,360,7.0,11.0,93,0.00,,---,0.00,VWS V14.01,2013-05-01 11:57:00,
2013-05-01 08:02:00,56.3,54.3,30.24,North,360,5.0,11.0,93,0.00,,---,0.00,VWS V14.01,2013-05-01 12:02:00,
2013-05-01 08:08:00,56.3,54.3,30.25,North,360,10.0,14.0,93,0.00,,---,0.00,VWS V14.01,2013-05-01 12:08:00,
2013-05-01 08:13:00,56.3,54.3,30.25,North,360,6.0,14.0,93,0.00,,---,0.00,VWS V14.01,2013-05-01 12:13:00,
2013-05-01 08:18:00,56.3,54.3,30.25,North,360,9.0,14.0,93,0.00,,---,0.00,VWS V14.01,2013-05-01 12:18:00,
2013-05-01 08:23:00,56.3,54.3,30.25,North,360,5.0,14.0,93,0.00,,---,0.00,VWS V14.01,2013-05-01 12:23:00,
2013-05-01 08:28:00,56.3,54.3,30.25,North,360,7.0,15.0,93,0.00,,---,0.00,VWS V14.01,2013-05-01 12:28:00,
2013-05-01 08:33:00,56.4,54.4,30.25,North,360,3.0,15.0,93,0.00,,---,0.00,VWS V14.01,2013-05-01 12:33:00,
2013-05-01 08:38:00,56.5,54.5,30.25,North,360,6.0,15.0,93,0.00,,---,0.00,VWS V14.01,2013-05-01 12:38:00,
2013-05-01 08:43:00,56.6,54.3,30.25,North,360,6.0,15.0,92,0.00,,---,0.00,VWS V14.01,2013-05-01 12:43:00,
2013-05-01 08:48:00,56.7,54.4,30.24,North,360,13.0,15.0,92,0.00,,---,0.00,VWS V14.01,2013-05-01 12:48:00,
2013-05-01 08:53:00,56.8,54.5,30.25,North,360,5.0,15.0,92,0.00,,---,0.00,VWS V14.01,2013-05-01 12:53:00,
2013-05-01 08:58:00,56.8,54.5,30.25,North,360,5.0,15.0,92,0.00,,---,0.00,VWS V14.01,2013-05-01 12:58:00,
2013-05-01 09:03:00,56.9,54.6,30.24,North,360,13.0,13.0,92,0.00,,---,0.00,VWS V14.01,2013-05-01 13:03:00,
2013-05-01 09:08:00,56.9,54.6,30.24,North,360,7.0,14.0,92,0.00,,---,0.00,VWS V14.01,2013-05-01 13:08:00,
2013-05-01 09:13:00,57.1,54.5,30.25,North,360,5.0,19.0,91,0.00,,---,0.00,VWS V14.01,2013-05-01 13:13:00,
2013-05-01 09:19:00,57.3,54.7,30.25,North,360,12.0,19.0,91,0.00,,---,0.00,VWS V14.01,2013-05-01 13:19:00,
2013-05-01 09:24:00,57.4,54.5,30.25,North,360,4.0,19.0,90,0.00,,---,0.00,VWS V14.01,2013-05-01 13:24:00,
2013-05-01 09:29:00,57.5,54.6,30.25,North,360,13.0,19.0,90,0.00,,---,0.00,VWS V14.01,2013-05-01 13:29:00,
2013-05-01 09:34:00,57.4,54.5,30.25,North,360,9.0,19.0,90,0.00,,---,0.00,VWS V14.01,2013-05-01 13:34:00,
2013-05-01 09:39:00,57.5,54.3,30.25,North,360,5.0,19.0,89,0.00,,---,0.00,VWS V14.01,2013-05-01 13:39:00,
2013-05-01 09:44:00,57.6,54.4,30.26,North,360,7.0,19.0,89,0.00,,---,0.00,VWS V14.01,2013-05-01 13:44:00,
2013-05-01 09:49:00,57.6,54.4,30.26,North,360,12.0,19.0,89,0.00,,---,0.00,VWS V14.01,2013-05-01 13:49:00,
2013-05-01 09:54:00,57.5,54.3,30.27,North,360,12.0,19.0,89,0.00,,---,0.00,VWS V14.01,2013-05-01 13:54:00,
2013-05-01 09:59:00,57.6,54.4,30.26,North,360,4.0,19.0,89,0.00,,---,0.00,VWS V14.01,2013-05-01 13:59:00,
2013-05-01 10:04:00,57.7,54.5,30.26,North,360,6.0,10.0,89,0.00,,---,0.00,VWS V14.01,2013-05-01 14:04:00,
2013-05-01 10:10:00,57.7,54.5,30.27,North,360,13.0,18.0,89,0.00,,---,0.00,VWS V14.01,2013-05-01 14:10:00,
2013-05-01 10:15:00,57.5,54.3,30.27,North,360,10.0,18.0,89,0.00,,---,0.00,VWS V14.01,2013-05-01 14:15:00,
2013-05-01 10:20:00,57.4,54.2,30.27,North,360,7.0,18.0,89,0.00,,---,0.00,VWS V14.01,2013-05-01 14:20:00,
2013-05-01 10:25:00,57.2,54.0,30.28,North,360,6.0,18.0,89,0.00,,---,0.00,VWS V14.01,2013-05-01 14:25:00,
2013-05-01 10:30:00,57.1,54.2,30.28,North,360,6.0,18.0,90,0.00,,---,0.00,VWS V14.01,2013-05-01 14:30:00,
2013-05-01 10:35:00,56.8,53.9,30.29,North,360,7.0,18.0,90,0.00,,---,0.00,VWS V14.01,2013-05-01 14:35:00,
2013-05-01 10:40:00,56.6,53.7,30.30,North,360,8.0,18.0,90,0.00,,---,0.00,VWS V14.01,2013-05-01 14:40:00,
2013-05-01 10:45:00,56.7,53.8,30.30,North,360,9.0,18.0,90,0.00,,---,0.00,VWS V14.01,2013-05-01 14:45:00,
2013-05-01 10:50:00,56.9,54.0,30.29,North,360,9.0,18.0,90,0.00,,---,0.00,VWS V14.01,2013-05-01 14:50:00,
2013-05-01 10:55:00,57.1,54.2,30.29,North,360,7.0,18.0,90,0.00,,---,0.00,VWS V14.01,2013-05-01 14:55:00,
2013-05-01 11:00:00,57.6,54.4,30.29,North,360,8.0,18.0,89,0.00,,---,0.00,VWS V14.01,2013-05-01 15:00:00,
2013-05-01 11:05:00,57.8,54.3,30.29,North,360,6.0,16.0,88,0.00,,---,0.00,VWS V14.01,2013-05-01 15:05:00,
2013-05-01 11:10:00,57.8,54.3,30.29,North,360,5.0,16.0,88,0.00,,---,0.00,VWS V14.01,2013-05-01 15:10:00,
2013-05-01 11:15:00,57.9,54.4,30.29,North,360,5.0,16.0,88,0.00,,---,0.00,VWS V14.01,2013-05-01 15:15:00,
2013-05-01 11:20:00,58.0,54.5,30.30,North,360,10.0,16.0,88,0.00,,---,0.00,VWS V14.01,2013-05-01 15:20:00,
2013-05-01 11:25:00,58.0,54.5,30.29,North,360,6.0,16.0,88,0.00,,---,0.00,VWS V14.01,2013-05-01 15:25:00,
2013-05-01 11:30:00,57.9,54.4,30.30,North,360,15.0,16.0,88,0.00,,---,0.00,VWS V14.01,2013-05-01 15:30:00,
2013-05-01 11:35:00,57.8,54.3,30.30,North,360,5.0,16.0,88,0.00,,---,0.00,VWS V14.01,2013-05-01 15:35:00,
2013-05-01 11:40:00,58.0,54.5,30.29,North,360,11.0,16.0,88,0.00,,---,0.00,VWS V14.01,2013-05-01 15:40:00,
2013-05-01 11:45:00,58.2,54.7,30.30,North,360,9.0,16.0,88,0.00,,---,0.00,VWS V14.01,2013-05-01 15:45:00,
2013-05-01 11:51:00,58.5,55.0,30.30,North,360,4.0,16.0,88,0.00,,---,0.00,VWS V14.01,2013-05-01 15:51:00,
2013-05-01 11:56:00,58.8,55.0,30.30,North,360,12.0,16.0,87,0.00,,---,0.00,VWS V14.01,2013-05-01 15:56:00,
2013-05-01 12:01:00,58.9,55.0,30.30,North,360,6.0,16.0,87,0.00,,---,0.00,VWS V14.01,2013-05-01 16:01:00,
2013-05-01 12:06:00,59.1,55.2,30.30,North,360,6.0,13.0,87,0.00,,---,0.00,VWS V14.01,2013-05-01 16:06:00,
2013-05-01 12:11:00,59.3,55.1,30.30,North,360,2.0,13.0,86,0.00,,---,0.00,VWS V14.01,2013-05-01 16:11:00,
2013-05-01 12:16:00,59.3,55.1,30.30,North,360,6.0,13.0,86,0.00,,---,0.00,VWS V14.01,2013-05-01 16:16:00,
2013-05-01 12:21:00,59.2,55.0,30.30,North,360,7.0,13.0,86,0.00,,---,0.00,VWS V14.01,2013-05-01 16:21:00,
2013-05-01 12:26:00,59.3,55.1,30.30,North,360,2.0,14.0,86,0.00,,---,0.00,VWS V14.01,2013-05-01 16:26:00,
2013-05-01 12:31:00,59.3,55.1,30.30,North,360,4.0,14.0,86,0.00,,---,0.00,VWS V14.01,2013-05-01 16:31:00,
2013-05-01 12:36:00,59.4,54.9,30.29,North,360,11.0,14.0,85,0.00,,---,0.00,VWS V14.01,2013-05-01 16:36:00,
2013-05-01 12:41:00,59.5,55.3,30.29,North,360,3.0,14.0,86,0.00,,---,0.00,VWS V14.01,2013-05-01 16:41:00,
2013-05-01 12:46:00,59.9,55.4,30.29,North,360,3.0,14.0,85,0.00,,---,0.00,VWS V14.01,2013-05-01 16:46:00,
2013-05-01 12:51:00,60.6,55.8,30.29,North,360,4.0,14.0,84,0.00,,---,0.00,VWS V14.01,2013-05-01 16:51:00,
2013-05-01 12:56:00,60.7,55.5,30.27,North,360,6.0,16.0,83,0.00,,---,0.00,VWS V14.01,2013-05-01 16:56:00,
2013-05-01 13:01:00,60.9,56.0,30.27,North,360,10.0,17.0,84,0.00,,---,0.00,VWS V14.01,2013-05-01 17:01:00,
2013-05-01 13:06:00,61.3,55.8,30.27,North,360,13.0,16.0,82,0.00,,---,0.00,VWS V14.01,2013-05-01 17:06:00,
2013-05-01 13:12:00,61.0,55.5,30.27,North,360,9.0,16.0,82,0.00,,---,0.00,VWS V14.01,2013-05-01 17:12:00,
2013-05-01 13:17:00,60.9,55.4,30.27,North,360,10.0,16.0,82,0.00,,---,0.00,VWS V14.01,2013-05-01 17:17:00,
2013-05-01 13:22:00,61.0,55.5,30.27,North,360,7.0,16.0,82,0.00,,---,0.00,VWS V14.01,2013-05-01 17:22:00,
2013-05-01 13:27:00,61.2,55.7,30.26,North,360,9.0,16.0,82,0.00,,---,0.00,VWS V14.01,2013-05-01 17:27:00,
2013-05-01 13:32:00,61.3,55.4,30.26,North,360,9.0,16.0,81,0.00,,---,0.00,VWS V14.01,2013-05-01 17:32:00,
2013-05-01 13:37:00,61.1,55.6,30.26,North,360,14.0,16.0,82,0.00,,---,0.00,VWS V14.01,2013-05-01 17:37:00,
2013-05-01 13:42:00,61.0,55.5,30.26,North,360,5.0,19.0,82,0.00,,---,0.00,VWS V14.01,2013-05-01 17:42:00,
2013-05-01 13:47:00,61.1,55.6,30.26,North,360,11.0,19.0,82,0.00,,---,0.00,VWS V14.01,2013-05-01 17:47:00,
2013-05-01 13:52:00,61.4,55.9,30.26,North,360,9.0,19.0,82,0.00,,---,0.00,VWS V14.01,2013-05-01 17:52:00,
2013-05-01 13:57:00,61.4,56.2,30.26,North,360,4.0,19.0,83,0.00,,---,0.00,VWS V14.01,2013-05-01 17:57:00,
2013-05-01 14:02:00,61.4,56.2,30.25,North,360,9.0,19.0,83,0.00,,---,0.00,VWS V14.01,2013-05-01 18:02:00,
2013-05-01 14:07:00,61.4,56.2,30.26,North,360,7.0,18.0,83,0.00,,---,0.00,VWS V14.01,2013-05-01 18:07:00,
2013-05-01 14:12:00,61.3,56.1,30.25,North,360,10.0,18.0,83,0.00,,---,0.00,VWS V14.01,2013-05-01 18:12:00,
2013-05-01 14:18:00,61.7,56.5,30.25,North,360,5.0,18.0,83,0.00,,---,0.00,VWS V14.01,2013-05-01 18:18:00,
2013-05-01 14:23:00,61.8,56.6,30.25,North,360,5.0,18.0,83,0.00,,---,0.00,VWS V14.01,2013-05-01 18:23:00,
2013-05-01 14:28:00,61.8,56.2,30.25,North,360,10.0,18.0,82,0.00,,---,0.00,VWS V14.01,2013-05-01 18:28:00,
2013-05-01 14:33:00,61.7,56.2,30.25,North,360,6.0,20.0,82,0.00,,---,0.00,VWS V14.01,2013-05-01 18:33:00,
2013-05-01 14:38:00,61.8,56.2,30.25,North,360,9.0,20.0,82,0.00,,---,0.00,VWS V14.01,2013-05-01 18:38:00,
2013-05-01 14:43:00,61.9,56.3,30.25,North,360,12.0,20.0,82,0.00,,---,0.00,VWS V14.01,2013-05-01 18:43:00,
2013-05-01 14:48:00,62.0,56.8,30.25,North,360,6.0,20.0,83,0.00,,---,0.00,VWS V14.01,2013-05-01 18:48:00,
2013-05-01 14:53:00,62.0,56.8,30.25,North,360,5.0,20.0,83,0.00,,---,0.00,VWS V14.01,2013-05-01 18:53:00,
2013-05-01 14:58:00,61.8,56.6,30.25,North,360,9.0,20.0,83,0.00,,---,0.00,VWS V14.01,2013-05-01 18:58:00,
2013-05-01 15:03:00,61.5,56.3,30.25,North,360,9.0,13.0,83,0.00,,---,0.00,VWS V14.01,2013-05-01 19:03:00,
2013-05-01 15:08:00,61.5,56.6,30.25,North,360,4.0,15.0,84,0.00,,---,0.00,VWS V14.01,2013-05-01 19:08:00,
2013-05-01 15:14:00,61.6,56.4,30.25,North,360,10.0,15.0,83,0.00,,---,0.00,VWS V14.01,2013-05-01 19:14:00,
2013-05-01 15:18:00,61.6,56.4,30.25,North,360,14.0,15.0,83,0.00,,---,0.00,VWS V14.01,2013-05-01 19:18:00,
2013-05-01 15:24:00,61.7,56.8,30.25,North,360,6.0,15.0,84,0.00,,---,0.00,VWS V14.01,2013-05-01 19:24:00,
2013-05-01 15:29:00,61.8,56.6,30.25,North,360,6.0,15.0,83,0.00,,---,0.00,VWS V14.01,2013-05-01 19:29:00,
2013-05-01 15:34:00,61.8,56.9,30.25,North,360,2.0,15.0,84,0.00,,---,0.00,VWS V14.01,2013-05-01 19:34:00,
2013-05-01 15:39:00,61.6,56.7,30.25,North,360,6.0,15.0,84,0.00,,---,0.00,VWS V14.01,2013-05-01 19:39:00,
2013-05-01 15:44:00,61.5,56.6,30.25,North,360,3.0,15.0,84,0.00,,---,0.00,VWS V14.01,2013-05-01 19:44:00,
2013-05-01 15:49:00,61.6,56.7,30.25,North,360,3.0,15.0,84,0.00,,---,0.00,VWS V14.01,2013-05-01 19:49:00,
2013-05-01 15:54:00,61.6,56.7,30.25,North,360,5.0,15.0,84,0.00,,---,0.00,VWS V14.01,2013-05-01 19:54:00,
2013-05-01 15:59:00,61.7,56.8,30.25,North,360,7.0,15.0,84,0.00,,---,0.00,VWS V14.01,2013-05-01 19:59:00,
2013-05-01 16:04:00,61.8,56.9,30.25,North,360,6.0,6.0,84,0.00,,---,0.00,VWS V14.01,2013-05-01 20:04:00,
2013-05-01 16:09:00,61.8,56.9,30.25,North,360,3.0,10.0,84,0.00,,---,0.00,VWS V14.01,2013-05-01 20:09:00,
2013-05-01 16:14:00,61.8,56.9,30.25,North,360,2.0,10.0,84,0.00,,---,0.00,VWS V14.01,2013-05-01 20:14:00,
2013-05-01 16:19:00,61.7,56.8,30.25,North,360,5.0,10.0,84,0.00,,---,0.00,VWS V14.01,2013-05-01 20:19:00,
2013-05-01 16:24:00,61.6,56.7,30.25,North,360,5.0,10.0,84,0.00,,---,0.00,VWS V14.01,2013-05-01 20:24:00,
2013-05-01 16:29:00,61.6,56.7,30.25,North,360,5.0,10.0,84,0.00,,---,0.00,VWS V14.01,2013-05-01 20:29:00,
2013-05-01 16:34:00,61.4,57.2,30.25,North,360,5.0,10.0,86,0.00,,---,0.00,VWS V14.01,2013-05-01 20:34:00,
2013-05-01 16:39:00,61.1,57.2,30.26,North,360,2.0,10.0,87,0.00,,---,0.00,VWS V14.01,2013-05-01 20:39:00,
2013-05-01 16:44:00,61.0,57.1,30.26,North,360,7.0,12.0,87,0.00,,---,0.00,VWS V14.01,2013-05-01 20:44:00,
2013-05-01 16:49:00,60.9,57.0,30.26,North,360,4.0,12.0,87,0.00,,---,0.00,VWS V14.01,2013-05-01 20:49:00,
2013-05-01 16:54:00,60.7,57.1,30.25,North,360,4.0,12.0,88,0.00,,---,0.00,VWS V14.01,2013-05-01 20:54:00,
2013-05-01 16:59:00,60.6,57.0,30.26,North,360,6.0,12.0,88,0.00,,---,0.00,VWS V14.01,2013-05-01 20:59:00,
2013-05-01 17:04:00,60.7,57.1,30.25,North,360,4.0,11.0,88,0.00,,---,0.00,VWS V14.01,2013-05-01 21:04:00,
2013-05-01 17:09:00,60.7,57.1,30.25,North,360,1.0,11.0,88,0.00,,---,0.00,VWS V14.01,2013-05-01 21:09:00,
2013-05-01 17:15:00,60.7,57.1,30.25,North,360,5.0,11.0,88,0.00,,---,0.00,VWS V14.01,2013-05-01 21:15:00,
2013-05-01 17:20:00,60.8,57.2,30.25,North,360,2.0,11.0,88,0.00,,---,0.00,VWS V14.01,2013-05-01 21:20:00,
2013-05-01 17:25:00,60.8,57.5,30.25,North,360,5.0,11.0,89,0.00,,---,0.00,VWS V14.01,2013-05-01 21:25:00,
2013-05-01 17:30:00,60.9,57.3,30.25,North,360,3.0,11.0,88,0.00,,---,0.00,VWS V14.01,2013-05-01 21:30:00,
2013-05-01 17:35:00,60.9,57.3,30.25,North,360,5.0,11.0,88,0.00,,---,0.00,VWS V14.01,2013-05-01 21:35:00,
2013-05-01 17:40:00,60.9,57.3,30.25,North,360,5.0,11.0,88,0.00,,---,0.00,VWS V14.01,2013-05-01 21:40:00,
2013-05-01 17:45:00,61.0,57.4,30.25,North,360,3.0,11.0,88,0.00,,---,0.00,VWS V14.01,2013-05-01 21:45:00,
2013-05-01 17:50:00,61.1,57.2,30.25,North,360,5.0,12.0,87,0.00,,---,0.00,VWS V14.01,2013-05-01 21:50:00,
2013-05-01 17:55:00,60.9,57.0,30.25,North,360,9.0,16.0,87,0.00,,---,0.00,VWS V14.01,2013-05-01 21:55:00,
2013-05-01 18:00:00,60.7,57.1,30.25,North,360,3.0,16.0,88,0.00,,---,0.00,VWS V14.01,2013-05-01 22:00:00,
2013-05-01 18:06:00,60.6,57.0,30.25,North,360,4.0,9.0,88,0.00,,---,0.00,VWS V14.01,2013-05-01 22:06:00,
2013-05-01 18:11:00,60.1,56.8,30.25,North,360,5.0,14.0,89,0.00,,---,0.00,VWS V14.01,2013-05-01 22:11:00,
2013-05-01 18:16:00,59.8,56.9,30.25,North,360,6.0,14.0,90,0.00,,---,0.00,VWS V14.01,2013-05-01 22:16:00,
2013-05-01 18:21:00,59.6,56.7,30.25,North,360,8.0,15.0,90,0.00,,---,0.00,VWS V14.01,2013-05-01 22:21:00,
2013-05-01 18:26:00,59.5,56.9,30.25,North,360,6.0,15.0,91,0.00,,---,0.00,VWS V14.01,2013-05-01 22:26:00,
2013-05-01 18:31:00,59.4,56.8,30.25,North,360,6.0,15.0,91,0.00,,---,0.00,VWS V14.01,2013-05-01 22:31:00,
2013-05-01 18:36:00,59.3,56.7,30.25,North,360,6.0,15.0,91,0.00,,---,0.00,VWS V14.01,2013-05-01 22:36:00,
2013-05-01 18:41:00,59.2,56.6,30.25,North,360,5.0,15.0,91,0.00,,---,0.00,VWS V14.01,2013-05-01 22:41:00,
2013-05-01 18:46:00,59.3,56.7,30.25,North,360,6.0,15.0,91,0.00,,---,0.00,VWS V14.01,2013-05-01 22:46:00,
2013-05-01 18:51:00,59.3,56.7,30.26,North,360,10.0,15.0,91,0.00,,---,0.00,VWS V14.01,2013-05-01 22:51:00,
2013-05-01 18:56:00,59.3,56.7,30.26,North,360,4.0,15.0,91,0.00,,---,0.00,VWS V14.01,2013-05-01 22:56:00,
2013-05-01 19:01:00,59.3,56.7,30.26,North,360,6.0,15.0,91,0.00,,---,0.00,VWS V14.01,2013-05-01 23:01:00,
2013-05-01 19:06:00,59.3,56.7,30.26,North,360,5.0,7.0,91,0.00,,---,0.00,VWS V14.01,2013-05-01 23:06:00,
2013-05-01 19:11:00,59.3,56.7,30.26,North,360,4.0,7.0,91,0.00,,---,0.00,VWS V14.01,2013-05-01 23:11:00,
2013-05-01 19:16:00,59.2,56.6,30.26,North,360,6.0,8.0,91,0.00,,---,0.00,VWS V14.01,2013-05-01 23:16:00,
2013-05-01 19:22:00,58.9,56.3,30.26,North,360,2.0,18.0,91,0.00,,---,0.00,VWS V14.01,2013-05-01 23:22:00,
2013-05-01 19:27:00,58.6,56.0,30.27,North,360,12.0,18.0,91,0.00,,---,0.00,VWS V14.01,2013-05-01 23:27:00,
2013-05-01 19:32:00,58.5,55.9,30.27,North,360,6.0,18.0,91,0.00,,---,0.00,VWS V14.01,2013-05-01 23:32:00,
2013-05-01 19:37:00,58.4,56.1,30.27,North,360,4.0,18.0,92,0.00,,---,0.00,VWS V14.01,2013-05-01 23:37:00,
2013-05-01 19:42:00,58.2,55.9,30.27,North,360,8.0,18.0,92,0.00,,---,0.00,VWS V14.01,2013-05-01 23:42:00,
2013-05-01 19:47:00,58.1,55.8,30.27,North,360,4.0,18.0,92,0.00,,---,0.00,VWS V14.01,2013-05-01 23:47:00,
2013-05-01 19:52:00,57.9,55.9,30.27,North,360,14.0,18.0,93,0.00,,---,0.00,VWS V14.01,2013-05-01 23:52:00,
2013-05-01 19:57:00,57.6,55.6,30.27,North,360,12.0,18.0,93,0.00,,---,0.00,VWS V14.01,2013-05-01 23:57:00,
2013-05-01 20:02:00,57.3,55.3,30.28,North,360,13.0,18.0,93,0.00,,---,0.00,VWS V14.01,2013-05-02 00:02:00,
2013-05-01 20:07:00,57.0,55.0,30.28,North,360,4.0,13.0,93,0.00,,---,0.00,VWS V14.01,2013-05-02 00:07:00,
2013-05-01 20:12:00,56.9,54.9,30.28,North,360,6.0,13.0,93,0.00,,---,0.00,VWS V14.01,2013-05-02 00:12:00,
2013-05-01 20:17:00,56.8,55.1,30.28,North,360,0.0,13.0,94,0.00,,---,0.00,VWS V14.01,2013-05-02 00:17:00,
2013-05-01 20:22:00,56.7,55.0,30.29,North,360,7.0,13.0,94,0.00,,---,0.00,VWS V14.01,2013-05-02 00:22:00,
2013-05-01 20:28:00,56.5,54.8,30.29,North,360,10.0,16.0,94,0.00,,---,0.00,VWS V14.01,2013-05-02 00:28:00,
2013-05-01 20:33:00,56.3,54.6,30.29,North,360,11.0,16.0,94,0.00,,---,0.00,VWS V14.01,2013-05-02 00:33:00,
2013-05-01 20:38:00,56.2,54.5,30.30,North,360,4.0,16.0,94,0.00,,---,0.00,VWS V14.01,2013-05-02 00:38:00,
2013-05-01 20:43:00,56.1,54.4,30.29,North,360,5.0,16.0,94,0.00,,---,0.00,VWS V14.01,2013-05-02 00:43:00,
2013-05-01 20:48:00,56.0,54.3,30.30,North,360,7.0,16.0,94,0.00,,---,0.00,VWS V14.01,2013-05-02 00:48:00,
2013-05-01 20:53:00,56.0,54.0,30.30,North,360,5.0,16.0,93,0.00,,---,0.00,VWS V14.01,2013-05-02 00:53:00,
2013-05-01 20:58:00,56.0,54.0,30.31,North,360,4.0,16.0,93,0.00,,---,0.00,VWS V14.01,2013-05-02 00:58:00,
2013-05-01 21:03:00,56.0,54.0,30.31,North,360,4.0,7.0,93,0.00,,---,0.00,VWS V14.01,2013-05-02 01:03:00,
2013-05-01 21:08:00,56.0,54.0,30.31,North,360,5.0,11.0,93,0.00,,---,0.00,VWS V14.01,2013-05-02 01:08:00,
2013-05-01 21:13:00,56.0,54.0,30.31,North,360,4.0,11.0,93,0.00,,---,0.00,VWS V14.01,2013-05-02 01:13:00,
2013-05-01 21:18:00,56.0,54.0,30.31,North,360,1.0,11.0,93,0.00,,---,0.00,VWS V14.01,2013-05-02 01:18:00,
2013-05-01 21:23:00,56.0,54.0,30.31,North,360,2.0,11.0,93,0.00,,---,0.00,VWS V14.01,2013-05-02 01:23:00,
2013-05-01 21:29:00,56.0,54.0,30.31,North,360,3.0,11.0,93,0.00,,---,0.00,VWS V14.01,2013-05-02 01:29:00,
2013-05-01 21:34:00,56.0,54.0,30.31,North,360,5.0,11.0,93,0.00,,---,0.00,VWS V14.01,2013-05-02 01:34:00,
2013-05-01 21:39:00,56.0,54.0,30.31,North,360,2.0,11.0,93,0.00,,---,0.00,VWS V14.01,2013-05-02 01:39:00,
2013-05-01 21:44:00,56.0,54.0,30.31,North,360,4.0,11.0,93,0.00,,---,0.00,VWS V14.01,2013-05-02 01:44:00,
2013-05-01 21:49:00,56.0,54.0,30.31,North,360,6.0,11.0,93,0.00,,---,0.00,VWS V14.01,2013-05-02 01:49:00,
2013-05-01 21:54:00,56.1,53.8,30.31,North,360,3.0,11.0,92,0.00,,---,0.00,VWS V14.01,2013-05-02 01:54:00,
2013-05-01 21:59:00,56.2,53.9,30.31,North,360,10.0,12.0,92,0.00,,---,0.00,VWS V14.01,2013-05-02 01:59:00,
2013-05-01 22:04:00,56.3,54.0,30.31,North,360,13.0,13.0,92,0.00,,---,0.00,VWS V14.01,2013-05-02 02:04:00,
2013-05-01 22:09:00,56.4,54.1,30.31,North,360,5.0,14.0,92,0.00,,---,0.00,VWS V14.01,2013-05-02 02:09:00,
2013-05-01 22:14:00,56.4,53.8,30.31,North,360,4.0,14.0,91,0.00,,---,0.00,VWS V14.01,2013-05-02 02:14:00,
2013-05-01 22:19:00,56.4,53.8,30.31,North,360,12.0,14.0,91,0.00,,---,0.00,VWS V14.01,2013-05-02 02:19:00,
2013-05-01 22:24:00,56.5,53.9,30.31,North,360,4.0,14.0,91,0.00,,---,0.00,VWS V14.01,2013-05-02 02:24:00,
2013-05-01 22:29:00,56.5,53.9,30.32,North,360,4.0,14.0,91,0.00,,---,0.00,VWS V14.01,2013-05-02 02:29:00,
2013-05-01 22:34:00,56.5,53.9,30.32,North,360,5.0,14.0,91,0.00,,---,0.00,VWS V14.01,2013-05-02 02:34:00,
2013-05-01 22:39:00,56.5,53.9,30.32,North,360,4.0,14.0,91,0.00,,---,0.00,VWS V14.01,2013-05-02 02:39:00,
2013-05-01 22:44:00,56.6,54.0,30.32,North,360,6.0,14.0,91,0.00,,---,0.00,VWS V14.01,2013-05-02 02:44:00,
2013-05-01 22:50:00,56.6,54.0,30.32,North,360,7.0,14.0,91,0.00,,---,0.00,VWS V14.01,2013-05-02 02:50:00,
2013-05-01 22:55:00,56.7,54.1,30.31,North,360,0.0,14.0,91,0.00,,---,0.00,VWS V14.01,2013-05-02 02:55:00,
2013-05-01 23:00:00,56.6,54.0,30.32,North,360,3.0,14.0,91,0.00,,---,0.00,VWS V14.01,2013-05-02 03:00:00,
2013-05-01 23:05:00,56.6,54.0,30.32,North,360,5.0,5.0,91,0.00,,---,0.00,VWS V14.01,2013-05-02 03:05:00,
2013-05-01 23:10:00,56.6,54.0,30.31,North,360,7.0,11.0,91,0.00,,---,0.00,VWS V14.01,2013-05-02 03:10:00,
2013-05-01 23:15:00,56.6,54.0,30.31,North,360,12.0,12.0,91,0.00,,---,0.00,VWS V14.01,2013-05-02 03:15:00,
2013-05-01 23:20:00,56.7,54.1,30.31,North,360,9.0,12.0,91,0.00,,---,0.00,VWS V14.01,2013-05-02 03:20:00,
2013-05-01 23:25:00,56.7,54.1,30.31,North,360,5.0,12.0,91,0.00,,---,0.00,VWS V14.01,2013-05-02 03:25:00,
2013-05-01 23:30:00,56.7,54.1,30.31,North,360,5.0,12.0,91,0.00,,---,0.00,VWS V14.01,2013-05-02 03:30:00,
2013-05-01 23:35:00,56.6,54.0,30.31,North,360,4.0,12.0,91,0.00,,---,0.00,VWS V14.01,2013-05-02 03:35:00,
2013-05-01 23:40:00,56.6,54.0,30.31,North,360,5.0,17.0,91,0.00,,---,0.00,VWS V14.01,2013-05-02 03:40:00,
2013-05-01 23:46:00,56.6,54.0,30.31,North,360,11.0,17.0,91,0.00,,---,0.00,VWS V14.01,2013-05-02 03:46:00,
2013-05-01 23:51:00,56.6,54.0,30.31,North,360,7.0,17.0,91,0.00,,---,0.00,VWS V14.01,2013-05-02 03:51:00,
2013-05-01 23:56:00,56.6,54.0,30.31,North,360,4.0,17.0,91,0.00,,---,0.00,VWS V14.01,2013-05-02 03:56:00,